sensor_id;sensor_type;location;lat;lon;timestamp;P1;durP1;ratioP1;P2;durP2;ratioP2
42760;SDS011;31672;47.638;19.026;2023-03-25T00:00:35;0.55;;;0.30;;
42760;SDS011;31672;47.638;19.026;2023-03-25T00:05:40;0.65;;;0.50;;
42760;SDS011;31672;47.638;19.026;2023-03-25T00:10:44;1.02;;;0.40;;
42760;SDS011;31672;47.638;19.026;2023-03-25T00:15:47;1.10;;;0.52;;
42760;SDS011;31672;47.638;19.026;2023-03-25T00:20:54;1.25;;;0.60;;
42760;SDS011;31672;47.638;19.026;2023-03-25T00:25:58;0.88;;;0.40;;
42760;SDS011;31672;47.638;19.026;2023-03-25T00:31:06;1.55;;;0.60;;
42760;SDS011;31672;47.638;19.026;2023-03-25T00:36:13;0.40;;;0.40;;
42760;SDS011;31672;47.638;19.026;2023-03-25T00:41:20;1.02;;;0.50;;
42760;SDS011;31672;47.638;19.026;2023-03-25T00:46:27;0.57;;;0.50;;
42760;SDS011;31672;47.638;19.026;2023-03-25T00:51:34;1.48;;;0.85;;
42760;SDS011;31672;47.638;19.026;2023-03-25T00:56:54;4.20;;;1.15;;
42760;SDS011;31672;47.638;19.026;2023-03-25T01:01:57;5.55;;;1.50;;
42760;SDS011;31672;47.638;19.026;2023-03-25T01:07:00;5.28;;;2.17;;
42760;SDS011;31672;47.638;19.026;2023-03-25T01:12:04;2.83;;;1.80;;
42760;SDS011;31672;47.638;19.026;2023-03-25T01:17:07;5.53;;;2.58;;
42760;SDS011;31672;47.638;19.026;2023-03-25T01:22:11;4.70;;;3.20;;
42760;SDS011;31672;47.638;19.026;2023-03-25T01:27:13;4.05;;;2.83;;
42760;SDS011;31672;47.638;19.026;2023-03-25T01:32:17;4.30;;;3.05;;
42760;SDS011;31672;47.638;19.026;2023-03-25T01:37:20;6.10;;;3.22;;
42760;SDS011;31672;47.638;19.026;2023-03-25T01:42:23;4.80;;;3.53;;
42760;SDS011;31672;47.638;19.026;2023-03-25T01:47:26;4.43;;;3.10;;
42760;SDS011;31672;47.638;19.026;2023-03-25T01:52:31;4.20;;;3.30;;
42760;SDS011;31672;47.638;19.026;2023-03-25T01:57:34;5.63;;;3.30;;
42760;SDS011;31672;47.638;19.026;2023-03-25T02:02:38;4.53;;;3.60;;
42760;SDS011;31672;47.638;19.026;2023-03-25T02:07:42;5.50;;;3.83;;
42760;SDS011;31672;47.638;19.026;2023-03-25T02:12:48;5.43;;;3.70;;
42760;SDS011;31672;47.638;19.026;2023-03-25T02:28:34;4.50;;;3.40;;
42760;SDS011;31672;47.638;19.026;2023-03-25T02:39:20;4.43;;;3.63;;
42760;SDS011;31672;47.638;19.026;2023-03-25T02:49:58;4.90;;;4.33;;
42760;SDS011;31672;47.638;19.026;2023-03-25T02:55:11;4.77;;;4.20;;
42760;SDS011;31672;47.638;19.026;2023-03-25T03:00:20;5.90;;;4.20;;
42760;SDS011;31672;47.638;19.026;2023-03-25T03:05:29;4.27;;;3.67;;
42760;SDS011;31672;47.638;19.026;2023-03-25T03:27:08;4.47;;;3.57;;
42760;SDS011;31672;47.638;19.026;2023-03-25T03:32:26;5.97;;;3.57;;
42760;SDS011;31672;47.638;19.026;2023-03-25T03:38:06;3.63;;;3.20;;
42760;SDS011;31672;47.638;19.026;2023-03-25T03:43:17;4.03;;;3.30;;
42760;SDS011;31672;47.638;19.026;2023-03-25T03:48:26;3.50;;;2.40;;
42760;SDS011;31672;47.638;19.026;2023-03-25T03:53:42;4.57;;;2.60;;
42760;SDS011;31672;47.638;19.026;2023-03-25T03:58:53;3.10;;;2.30;;
42760;SDS011;31672;47.638;19.026;2023-03-25T04:04:04;4.90;;;2.83;;
42760;SDS011;31672;47.638;19.026;2023-03-25T04:14:59;4.60;;;3.57;;
42760;SDS011;31672;47.638;19.026;2023-03-25T04:20:04;6.10;;;3.70;;
42760;SDS011;31672;47.638;19.026;2023-03-25T04:25:13;6.93;;;4.60;;
42760;SDS011;31672;47.638;19.026;2023-03-25T04:30:16;5.07;;;4.23;;
42760;SDS011;31672;47.638;19.026;2023-03-25T04:35:20;5.60;;;4.40;;
42760;SDS011;31672;47.638;19.026;2023-03-25T04:40:23;5.93;;;4.60;;
42760;SDS011;31672;47.638;19.026;2023-03-25T04:45:27;5.07;;;4.27;;
42760;SDS011;31672;47.638;19.026;2023-03-25T04:50:31;4.83;;;4.10;;
42760;SDS011;31672;47.638;19.026;2023-03-25T04:55:35;4.57;;;3.87;;
42760;SDS011;31672;47.638;19.026;2023-03-25T05:00:38;4.07;;;3.60;;
42760;SDS011;31672;47.638;19.026;2023-03-25T05:05:42;3.50;;;3.20;;
42760;SDS011;31672;47.638;19.026;2023-03-25T05:10:45;5.60;;;3.93;;
42760;SDS011;31672;47.638;19.026;2023-03-25T05:15:50;4.07;;;3.00;;
42760;SDS011;31672;47.638;19.026;2023-03-25T05:20:54;4.50;;;3.37;;
42760;SDS011;31672;47.638;19.026;2023-03-25T05:25:58;4.47;;;3.53;;
42760;SDS011;31672;47.638;19.026;2023-03-25T05:31:01;3.60;;;3.10;;
42760;SDS011;31672;47.638;19.026;2023-03-25T05:36:10;3.23;;;2.60;;
42760;SDS011;31672;47.638;19.026;2023-03-25T05:41:17;2.63;;;2.43;;
42760;SDS011;31672;47.638;19.026;2023-03-25T05:46:20;3.77;;;2.83;;
42760;SDS011;31672;47.638;19.026;2023-03-25T05:51:24;3.23;;;2.70;;
42760;SDS011;31672;47.638;19.026;2023-03-25T05:56:29;3.13;;;2.50;;
42760;SDS011;31672;47.638;19.026;2023-03-25T06:01:32;3.17;;;2.37;;
42760;SDS011;31672;47.638;19.026;2023-03-25T06:06:35;2.80;;;2.10;;
42760;SDS011;31672;47.638;19.026;2023-03-25T06:11:38;7.27;;;3.77;;
42760;SDS011;31672;47.638;19.026;2023-03-25T06:16:41;6.03;;;2.80;;
42760;SDS011;31672;47.638;19.026;2023-03-25T06:21:45;3.20;;;2.27;;
42760;SDS011;31672;47.638;19.026;2023-03-25T06:26:50;5.27;;;3.00;;
42760;SDS011;31672;47.638;19.026;2023-03-25T06:31:53;14.43;;;5.00;;
42760;SDS011;31672;47.638;19.026;2023-03-25T06:36:57;16.50;;;6.03;;
42760;SDS011;31672;47.638;19.026;2023-03-25T06:42:01;10.43;;;4.60;;
42760;SDS011;31672;47.638;19.026;2023-03-25T06:47:04;13.77;;;4.60;;
42760;SDS011;31672;47.638;19.026;2023-03-25T06:52:07;18.63;;;6.60;;
42760;SDS011;31672;47.638;19.026;2023-03-25T06:57:10;11.47;;;4.70;;
42760;SDS011;31672;47.638;19.026;2023-03-25T07:02:14;5.23;;;2.50;;
42760;SDS011;31672;47.638;19.026;2023-03-25T07:07:17;2.30;;;1.40;;
42760;SDS011;31672;47.638;19.026;2023-03-25T07:12:20;2.10;;;1.33;;
42760;SDS011;31672;47.638;19.026;2023-03-25T07:17:25;4.43;;;3.33;;
42760;SDS011;31672;47.638;19.026;2023-03-25T07:22:28;9.87;;;4.20;;
42760;SDS011;31672;47.638;19.026;2023-03-25T07:27:31;15.03;;;5.87;;
42760;SDS011;31672;47.638;19.026;2023-03-25T07:32:34;8.07;;;6.37;;
42760;SDS011;31672;47.638;19.026;2023-03-25T07:37:37;11.73;;;4.43;;
42760;SDS011;31672;47.638;19.026;2023-03-25T07:42:40;4.38;;;2.95;;
42760;SDS011;31672;47.638;19.026;2023-03-25T07:47:43;2.33;;;1.45;;
42760;SDS011;31672;47.638;19.026;2023-03-25T07:52:52;2.08;;;1.23;;
42760;SDS011;31672;47.638;19.026;2023-03-25T07:57:56;3.30;;;1.20;;
42760;SDS011;31672;47.638;19.026;2023-03-25T08:03:02;1.88;;;0.98;;
42760;SDS011;31672;47.638;19.026;2023-03-25T08:08:05;1.30;;;0.90;;
42760;SDS011;31672;47.638;19.026;2023-03-25T08:13:09;1.20;;;0.80;;
42760;SDS011;31672;47.638;19.026;2023-03-25T08:18:13;1.73;;;1.20;;
42760;SDS011;31672;47.638;19.026;2023-03-25T08:23:16;2.55;;;1.25;;
42760;SDS011;31672;47.638;19.026;2023-03-25T08:28:21;2.05;;;1.15;;
42760;SDS011;31672;47.638;19.026;2023-03-25T08:33:24;1.50;;;1.00;;
42760;SDS011;31672;47.638;19.026;2023-03-25T08:38:35;1.38;;;1.10;;
42760;SDS011;31672;47.638;19.026;2023-03-25T08:43:38;1.23;;;0.82;;
42760;SDS011;31672;47.638;19.026;2023-03-25T08:48:41;1.80;;;1.20;;
42760;SDS011;31672;47.638;19.026;2023-03-25T08:53:45;1.40;;;1.00;;
42760;SDS011;31672;47.638;19.026;2023-03-25T08:58:48;2.85;;;0.80;;
42760;SDS011;31672;47.638;19.026;2023-03-25T09:03:52;1.75;;;1.00;;
42760;SDS011;31672;47.638;19.026;2023-03-25T09:08:57;1.85;;;0.98;;
42760;SDS011;31672;47.638;19.026;2023-03-25T09:14:01;3.95;;;1.17;;
42760;SDS011;31672;47.638;19.026;2023-03-25T09:19:05;2.28;;;0.90;;
42760;SDS011;31672;47.638;19.026;2023-03-25T09:24:09;1.75;;;0.77;;
42760;SDS011;31672;47.638;19.026;2023-03-25T09:29:14;2.05;;;1.00;;
42760;SDS011;31672;47.638;19.026;2023-03-25T09:34:17;2.42;;;1.05;;
42760;SDS011;31672;47.638;19.026;2023-03-25T09:39:20;2.85;;;1.05;;
42760;SDS011;31672;47.638;19.026;2023-03-25T09:44:25;1.63;;;0.90;;
42760;SDS011;31672;47.638;19.026;2023-03-25T09:49:49;2.13;;;1.00;;
42760;SDS011;31672;47.638;19.026;2023-03-25T09:55:02;2.38;;;1.15;;
42760;SDS011;31672;47.638;19.026;2023-03-25T10:00:15;2.08;;;1.00;;
42760;SDS011;31672;47.638;19.026;2023-03-25T10:11:18;2.88;;;1.27;;
42760;SDS011;31672;47.638;19.026;2023-03-25T10:22:14;2.78;;;1.05;;
42760;SDS011;31672;47.638;19.026;2023-03-25T10:27:44;3.17;;;1.23;;
42760;SDS011;31672;47.638;19.026;2023-03-25T10:38:04;4.13;;;1.98;;
42760;SDS011;31672;47.638;19.026;2023-03-25T10:43:33;4.03;;;1.80;;
42760;SDS011;31672;47.638;19.026;2023-03-25T10:48:42;4.63;;;3.30;;
42760;SDS011;31672;47.638;19.026;2023-03-25T10:53:47;4.15;;;2.20;;
42760;SDS011;31672;47.638;19.026;2023-03-25T10:58:54;5.65;;;3.40;;
42760;SDS011;31672;47.638;19.026;2023-03-25T11:03:59;5.25;;;2.22;;
42760;SDS011;31672;47.638;19.026;2023-03-25T11:14:20;3.10;;;2.05;;
42760;SDS011;31672;47.638;19.026;2023-03-25T11:19:27;3.88;;;1.73;;
42760;SDS011;31672;47.638;19.026;2023-03-25T11:24:59;4.28;;;1.52;;
42760;SDS011;31672;47.638;19.026;2023-03-25T11:30:30;2.53;;;1.30;;
42760;SDS011;31672;47.638;19.026;2023-03-25T11:35:37;2.55;;;0.90;;
42760;SDS011;31672;47.638;19.026;2023-03-25T11:40:52;3.53;;;1.02;;
42760;SDS011;31672;47.638;19.026;2023-03-25T11:46:06;5.18;;;1.20;;
42760;SDS011;31672;47.638;19.026;2023-03-25T11:51:21;3.72;;;1.60;;
42760;SDS011;31672;47.638;19.026;2023-03-25T11:56:36;3.95;;;1.00;;
42760;SDS011;31672;47.638;19.026;2023-03-25T12:01:46;3.63;;;1.98;;
42760;SDS011;31672;47.638;19.026;2023-03-25T12:07:07;3.58;;;1.58;;
42760;SDS011;31672;47.638;19.026;2023-03-25T12:12:38;3.65;;;1.30;;
42760;SDS011;31672;47.638;19.026;2023-03-25T12:17:59;5.93;;;3.17;;
42760;SDS011;31672;47.638;19.026;2023-03-25T12:34:26;4.25;;;2.20;;
42760;SDS011;31672;47.638;19.026;2023-03-25T12:45:26;2.00;;;1.07;;
42760;SDS011;31672;47.638;19.026;2023-03-25T12:57:11;2.05;;;0.80;;
42760;SDS011;31672;47.638;19.026;2023-03-25T13:13:32;2.45;;;1.00;;
42760;SDS011;31672;47.638;19.026;2023-03-25T13:18:39;4.03;;;1.10;;
42760;SDS011;31672;47.638;19.026;2023-03-25T13:23:52;4.50;;;1.40;;
42760;SDS011;31672;47.638;19.026;2023-03-25T13:34:51;4.63;;;1.35;;
42760;SDS011;31672;47.638;19.026;2023-03-25T13:40:09;2.58;;;1.30;;
42760;SDS011;31672;47.638;19.026;2023-03-25T13:46:05;4.68;;;1.38;;
42760;SDS011;31672;47.638;19.026;2023-03-25T13:51:11;2.17;;;0.80;;
42760;SDS011;31672;47.638;19.026;2023-03-25T14:14:02;12.20;;;5.57;;
42760;SDS011;31672;47.638;19.026;2023-03-25T14:19:37;2.08;;;1.10;;
42760;SDS011;31672;47.638;19.026;2023-03-25T14:24:44;2.90;;;1.20;;
42760;SDS011;31672;47.638;19.026;2023-03-25T14:34:56;7.13;;;2.97;;
42760;SDS011;31672;47.638;19.026;2023-03-25T14:45:59;2.60;;;1.20;;
42760;SDS011;31672;47.638;19.026;2023-03-25T14:56:34;4.10;;;1.20;;
42760;SDS011;31672;47.638;19.026;2023-03-25T15:01:43;2.15;;;0.90;;
42760;SDS011;31672;47.638;19.026;2023-03-25T15:06:48;2.70;;;1.00;;
42760;SDS011;31672;47.638;19.026;2023-03-25T15:11:55;2.85;;;0.77;;
42760;SDS011;31672;47.638;19.026;2023-03-25T15:17:06;3.70;;;0.65;;
42760;SDS011;31672;47.638;19.026;2023-03-25T15:22:35;2.67;;;0.80;;
42760;SDS011;31672;47.638;19.026;2023-03-25T15:27:52;2.47;;;0.90;;
42760;SDS011;31672;47.638;19.026;2023-03-25T15:44:42;3.03;;;0.88;;
42760;SDS011;31672;47.638;19.026;2023-03-25T15:50:22;3.45;;;0.98;;
42760;SDS011;31672;47.638;19.026;2023-03-25T16:01:15;2.45;;;0.70;;
42760;SDS011;31672;47.638;19.026;2023-03-25T16:06:26;3.35;;;0.88;;
42760;SDS011;31672;47.638;19.026;2023-03-25T16:11:32;3.30;;;1.05;;
42760;SDS011;31672;47.638;19.026;2023-03-25T16:16:36;3.17;;;0.90;;
42760;SDS011;31672;47.638;19.026;2023-03-25T16:21:46;5.35;;;1.88;;
42760;SDS011;31672;47.638;19.026;2023-03-25T16:26:52;2.47;;;1.00;;
42760;SDS011;31672;47.638;19.026;2023-03-25T16:31:56;4.13;;;1.37;;
42760;SDS011;31672;47.638;19.026;2023-03-25T16:37:02;3.87;;;0.90;;
42760;SDS011;31672;47.638;19.026;2023-03-25T16:42:18;3.30;;;0.70;;
42760;SDS011;31672;47.638;19.026;2023-03-25T16:47:32;3.47;;;0.80;;
42760;SDS011;31672;47.638;19.026;2023-03-25T16:52:35;3.50;;;1.00;;
42760;SDS011;31672;47.638;19.026;2023-03-25T16:57:39;5.07;;;1.10;;
42760;SDS011;31672;47.638;19.026;2023-03-25T17:02:43;8.33;;;3.93;;
42760;SDS011;31672;47.638;19.026;2023-03-25T17:07:55;12.20;;;5.43;;
42760;SDS011;31672;47.638;19.026;2023-03-25T17:13:08;8.13;;;3.53;;
42760;SDS011;31672;47.638;19.026;2023-03-25T17:18:13;3.87;;;1.63;;
42760;SDS011;31672;47.638;19.026;2023-03-25T17:23:20;7.70;;;3.10;;
42760;SDS011;31672;47.638;19.026;2023-03-25T17:29:22;8.17;;;3.77;;
42760;SDS011;31672;47.638;19.026;2023-03-25T17:34:25;3.20;;;1.90;;
42760;SDS011;31672;47.638;19.026;2023-03-25T17:39:29;4.73;;;1.60;;
42760;SDS011;31672;47.638;19.026;2023-03-25T17:44:38;4.60;;;2.37;;
42760;SDS011;31672;47.638;19.026;2023-03-25T17:54:49;11.23;;;5.50;;
42760;SDS011;31672;47.638;19.026;2023-03-25T17:59:52;10.93;;;5.13;;
42760;SDS011;31672;47.638;19.026;2023-03-25T18:04:56;12.60;;;5.97;;
42760;SDS011;31672;47.638;19.026;2023-03-25T18:10:00;12.70;;;5.47;;
42760;SDS011;31672;47.638;19.026;2023-03-25T18:15:03;15.50;;;7.27;;
42760;SDS011;31672;47.638;19.026;2023-03-25T18:20:14;16.93;;;7.57;;
42760;SDS011;31672;47.638;19.026;2023-03-25T18:25:21;21.77;;;10.13;;
42760;SDS011;31672;47.638;19.026;2023-03-25T18:30:39;13.50;;;5.10;;
42760;SDS011;31672;47.638;19.026;2023-03-25T18:35:56;8.52;;;3.15;;
42760;SDS011;31672;47.638;19.026;2023-03-25T18:41:01;4.73;;;1.97;;
42760;SDS011;31672;47.638;19.026;2023-03-25T18:46:04;6.90;;;2.40;;
42760;SDS011;31672;47.638;19.026;2023-03-25T18:51:09;7.03;;;2.60;;
42760;SDS011;31672;47.638;19.026;2023-03-25T18:56:16;4.77;;;2.40;;
42760;SDS011;31672;47.638;19.026;2023-03-25T19:01:21;4.77;;;2.27;;
42760;SDS011;31672;47.638;19.026;2023-03-25T19:06:24;4.27;;;2.00;;
42760;SDS011;31672;47.638;19.026;2023-03-25T19:11:29;5.50;;;2.40;;
42760;SDS011;31672;47.638;19.026;2023-03-25T19:16:34;6.17;;;2.87;;
42760;SDS011;31672;47.638;19.026;2023-03-25T19:21:38;7.37;;;2.67;;
42760;SDS011;31672;47.638;19.026;2023-03-25T19:26:41;20.77;;;9.17;;
42760;SDS011;31672;47.638;19.026;2023-03-25T19:31:44;7.07;;;3.30;;
42760;SDS011;31672;47.638;19.026;2023-03-25T19:36:51;6.00;;;2.87;;
42760;SDS011;31672;47.638;19.026;2023-03-25T19:41:54;6.13;;;2.73;;
42760;SDS011;31672;47.638;19.026;2023-03-25T19:46:58;6.90;;;2.77;;
42760;SDS011;31672;47.638;19.026;2023-03-25T19:52:01;6.53;;;2.60;;
42760;SDS011;31672;47.638;19.026;2023-03-25T19:57:04;6.77;;;2.03;;
42760;SDS011;31672;47.638;19.026;2023-03-25T20:02:07;5.63;;;2.47;;
42760;SDS011;31672;47.638;19.026;2023-03-25T20:07:11;4.17;;;1.80;;
42760;SDS011;31672;47.638;19.026;2023-03-25T20:12:15;4.73;;;1.70;;
42760;SDS011;31672;47.638;19.026;2023-03-25T20:17:18;4.07;;;1.37;;
42760;SDS011;31672;47.638;19.026;2023-03-25T20:22:21;2.63;;;1.23;;
42760;SDS011;31672;47.638;19.026;2023-03-25T20:27:27;2.07;;;1.07;;
42760;SDS011;31672;47.638;19.026;2023-03-25T20:32:30;4.83;;;1.00;;
42760;SDS011;31672;47.638;19.026;2023-03-25T20:37:44;1.93;;;0.97;;
42760;SDS011;31672;47.638;19.026;2023-03-25T20:42:50;1.53;;;0.80;;
42760;SDS011;31672;47.638;19.026;2023-03-25T20:47:53;7.73;;;2.67;;
42760;SDS011;31672;47.638;19.026;2023-03-25T20:52:57;52.73;;;12.83;;
42760;SDS011;31672;47.638;19.026;2023-03-25T20:58:00;3.30;;;1.00;;
42760;SDS011;31672;47.638;19.026;2023-03-25T21:03:03;1.23;;;0.60;;
42760;SDS011;31672;47.638;19.026;2023-03-25T21:08:06;3.57;;;1.20;;
42760;SDS011;31672;47.638;19.026;2023-03-25T21:13:09;2.23;;;0.70;;
42760;SDS011;31672;47.638;19.026;2023-03-25T21:18:12;2.03;;;0.50;;
42760;SDS011;31672;47.638;19.026;2023-03-25T21:23:16;1.60;;;0.53;;
42760;SDS011;31672;47.638;19.026;2023-03-25T21:28:19;0.80;;;0.40;;
42760;SDS011;31672;47.638;19.026;2023-03-25T21:33:23;1.33;;;0.60;;
42760;SDS011;31672;47.638;19.026;2023-03-25T21:38:26;1.37;;;0.50;;
42760;SDS011;31672;47.638;19.026;2023-03-25T21:43:31;1.80;;;0.50;;
42760;SDS011;31672;47.638;19.026;2023-03-25T21:48:35;1.27;;;0.33;;
42760;SDS011;31672;47.638;19.026;2023-03-25T21:53:40;1.47;;;0.53;;
42760;SDS011;31672;47.638;19.026;2023-03-25T21:58:47;1.33;;;0.60;;
42760;SDS011;31672;47.638;19.026;2023-03-25T22:03:50;0.70;;;0.40;;
42760;SDS011;31672;47.638;19.026;2023-03-25T22:08:57;1.47;;;0.40;;
42760;SDS011;31672;47.638;19.026;2023-03-25T22:14:01;2.07;;;0.70;;
42760;SDS011;31672;47.638;19.026;2023-03-25T22:19:07;0.40;;;0.23;;
42760;SDS011;31672;47.638;19.026;2023-03-25T22:24:10;0.90;;;0.40;;
42760;SDS011;31672;47.638;19.026;2023-03-25T22:29:13;0.37;;;0.20;;
42760;SDS011;31672;47.638;19.026;2023-03-25T22:34:17;0.43;;;0.20;;
42760;SDS011;31672;47.638;19.026;2023-03-25T22:39:20;0.30;;;0.20;;
42760;SDS011;31672;47.638;19.026;2023-03-25T22:44:26;2.00;;;0.30;;
42760;SDS011;31672;47.638;19.026;2023-03-25T22:49:29;1.23;;;0.47;;
42760;SDS011;31672;47.638;19.026;2023-03-25T22:54:32;0.50;;;0.30;;
42760;SDS011;31672;47.638;19.026;2023-03-25T22:59:35;1.30;;;0.47;;
42760;SDS011;31672;47.638;19.026;2023-03-25T23:04:40;0.63;;;0.30;;
42760;SDS011;31672;47.638;19.026;2023-03-25T23:09:43;1.83;;;0.60;;
42760;SDS011;31672;47.638;19.026;2023-03-25T23:14:52;0.70;;;0.30;;
42760;SDS011;31672;47.638;19.026;2023-03-25T23:19:57;0.77;;;0.37;;
42760;SDS011;31672;47.638;19.026;2023-03-25T23:25:00;0.20;;;0.20;;
42760;SDS011;31672;47.638;19.026;2023-03-25T23:30:05;1.07;;;0.30;;
42760;SDS011;31672;47.638;19.026;2023-03-25T23:35:09;1.93;;;0.40;;
42760;SDS011;31672;47.638;19.026;2023-03-25T23:40:12;1.33;;;0.30;;
42760;SDS011;31672;47.638;19.026;2023-03-25T23:45:16;0.30;;;0.20;;
42760;SDS011;31672;47.638;19.026;2023-03-25T23:50:19;1.53;;;0.57;;
42760;SDS011;31672;47.638;19.026;2023-03-25T23:55:22;0.83;;;0.20;;
